sensor_id;sensor_type;location;lat;lon;timestamp;P1;durP1;ratioP1;P2;durP2;ratioP2
1404;SDS011;697;51.114;6.542;2022-07-29T00:00:50;3.07;;;1.57;;
1404;SDS011;697;51.114;6.542;2022-07-29T00:03:16;1.53;;;1.00;;
1404;SDS011;697;51.114;6.542;2022-07-29T00:05:44;2.00;;;1.30;;
1404;SDS011;697;51.114;6.542;2022-07-29T00:08:11;2.80;;;1.40;;
1404;SDS011;697;51.114;6.542;2022-07-29T00:10:38;4.03;;;1.40;;
1404;SDS011;697;51.114;6.542;2022-07-29T00:13:05;4.43;;;1.47;;
1404;SDS011;697;51.114;6.542;2022-07-29T00:15:31;2.23;;;1.00;;
1404;SDS011;697;51.114;6.542;2022-07-29T00:17:58;7.03;;;1.47;;
1404;SDS011;697;51.114;6.542;2022-07-29T00:20:25;1.93;;;1.23;;
1404;SDS011;697;51.114;6.542;2022-07-29T00:22:54;1.57;;;1.20;;
1404;SDS011;697;51.114;6.542;2022-07-29T00:25:20;2.67;;;1.20;;
1404;SDS011;697;51.114;6.542;2022-07-29T00:27:47;5.40;;;1.83;;
1404;SDS011;697;51.114;6.542;2022-07-29T00:30:14;1.57;;;1.30;;
1404;SDS011;697;51.114;6.542;2022-07-29T00:32:41;5.13;;;1.63;;
1404;SDS011;697;51.114;6.542;2022-07-29T00:35:08;3.90;;;1.30;;
1404;SDS011;697;51.114;6.542;2022-07-29T00:37:54;7.10;;;1.73;;
1404;SDS011;697;51.114;6.542;2022-07-29T00:40:21;3.20;;;1.37;;
1404;SDS011;697;51.114;6.542;2022-07-29T00:42:48;2.10;;;1.27;;
1404;SDS011;697;51.114;6.542;2022-07-29T00:45:17;2.70;;;1.30;;
1404;SDS011;697;51.114;6.542;2022-07-29T00:47:44;8.00;;;2.27;;
1404;SDS011;697;51.114;6.542;2022-07-29T00:50:12;2.40;;;1.40;;
1404;SDS011;697;51.114;6.542;2022-07-29T00:52:39;2.10;;;1.30;;
1404;SDS011;697;51.114;6.542;2022-07-29T00:55:09;3.50;;;1.50;;
1404;SDS011;697;51.114;6.542;2022-07-29T00:57:37;8.23;;;1.60;;
1404;SDS011;697;51.114;6.542;2022-07-29T01:00:05;2.57;;;1.50;;
1404;SDS011;697;51.114;6.542;2022-07-29T01:02:34;4.00;;;1.63;;
1404;SDS011;697;51.114;6.542;2022-07-29T01:05:01;2.10;;;1.43;;
1404;SDS011;697;51.114;6.542;2022-07-29T01:07:28;4.87;;;1.60;;
1404;SDS011;697;51.114;6.542;2022-07-29T01:09:58;2.27;;;1.43;;
1404;SDS011;697;51.114;6.542;2022-07-29T01:12:27;3.10;;;1.37;;
1404;SDS011;697;51.114;6.542;2022-07-29T01:14:56;3.97;;;1.60;;
1404;SDS011;697;51.114;6.542;2022-07-29T01:17:26;9.50;;;1.87;;
1404;SDS011;697;51.114;6.542;2022-07-29T01:19:58;3.37;;;1.60;;
1404;SDS011;697;51.114;6.542;2022-07-29T01:22:34;4.03;;;1.43;;
1404;SDS011;697;51.114;6.542;2022-07-29T01:25:14;2.70;;;1.50;;
1404;SDS011;697;51.114;6.542;2022-07-29T01:28:05;2.63;;;1.43;;
1404;SDS011;697;51.114;6.542;2022-07-29T01:30:42;1.50;;;1.30;;
1404;SDS011;697;51.114;6.542;2022-07-29T01:33:13;7.43;;;1.43;;
1404;SDS011;697;51.114;6.542;2022-07-29T01:35:57;2.73;;;1.50;;
1404;SDS011;697;51.114;6.542;2022-07-29T01:38:26;2.97;;;1.43;;
1404;SDS011;697;51.114;6.542;2022-07-29T01:40:58;5.33;;;1.70;;
1404;SDS011;697;51.114;6.542;2022-07-29T01:43:32;2.90;;;1.30;;
1404;SDS011;697;51.114;6.542;2022-07-29T01:46:07;1.70;;;1.27;;
1404;SDS011;697;51.114;6.542;2022-07-29T01:48:40;4.27;;;1.97;;
1404;SDS011;697;51.114;6.542;2022-07-29T01:51:16;4.27;;;1.50;;
1404;SDS011;697;51.114;6.542;2022-07-29T01:53:47;3.27;;;1.90;;
1404;SDS011;697;51.114;6.542;2022-07-29T01:56:21;5.50;;;2.07;;
1404;SDS011;697;51.114;6.542;2022-07-29T01:58:50;5.10;;;1.50;;
1404;SDS011;697;51.114;6.542;2022-07-29T02:01:20;2.67;;;1.37;;
1404;SDS011;697;51.114;6.542;2022-07-29T02:03:50;2.70;;;1.50;;
1404;SDS011;697;51.114;6.542;2022-07-29T02:06:19;3.13;;;1.30;;
1404;SDS011;697;51.114;6.542;2022-07-29T02:08:49;6.23;;;1.50;;
1404;SDS011;697;51.114;6.542;2022-07-29T02:11:18;5.23;;;1.83;;
1404;SDS011;697;51.114;6.542;2022-07-29T02:13:45;3.40;;;1.50;;
1404;SDS011;697;51.114;6.542;2022-07-29T02:16:13;3.33;;;1.57;;
1404;SDS011;697;51.114;6.542;2022-07-29T02:18:43;3.20;;;1.73;;
1404;SDS011;697;51.114;6.542;2022-07-29T02:21:15;9.10;;;1.77;;
1404;SDS011;697;51.114;6.542;2022-07-29T02:23:48;1.97;;;1.57;;
1404;SDS011;697;51.114;6.542;2022-07-29T02:26:18;3.53;;;1.80;;
1404;SDS011;697;51.114;6.542;2022-07-29T02:28:47;2.63;;;1.50;;
1404;SDS011;697;51.114;6.542;2022-07-29T02:31:16;2.63;;;1.70;;
1404;SDS011;697;51.114;6.542;2022-07-29T02:33:46;7.50;;;2.03;;
1404;SDS011;697;51.114;6.542;2022-07-29T02:36:15;5.67;;;2.10;;
1404;SDS011;697;51.114;6.542;2022-07-29T02:38:42;5.07;;;1.60;;
1404;SDS011;697;51.114;6.542;2022-07-29T02:41:23;5.30;;;2.10;;
1404;SDS011;697;51.114;6.542;2022-07-29T02:43:53;6.73;;;1.90;;
1404;SDS011;697;51.114;6.542;2022-07-29T02:46:26;3.60;;;1.87;;
1404;SDS011;697;51.114;6.542;2022-07-29T02:48:59;1.87;;;1.37;;
1404;SDS011;697;51.114;6.542;2022-07-29T02:51:33;3.67;;;1.53;;
1404;SDS011;697;51.114;6.542;2022-07-29T02:54:06;4.70;;;1.90;;
1404;SDS011;697;51.114;6.542;2022-07-29T02:56:35;5.23;;;1.50;;
1404;SDS011;697;51.114;6.542;2022-07-29T02:59:05;3.10;;;1.30;;
1404;SDS011;697;51.114;6.542;2022-07-29T03:01:36;6.70;;;1.50;;
1404;SDS011;697;51.114;6.542;2022-07-29T03:04:09;5.63;;;1.50;;
1404;SDS011;697;51.114;6.542;2022-07-29T03:06:37;3.93;;;1.47;;
1404;SDS011;697;51.114;6.542;2022-07-29T03:09:06;4.90;;;1.80;;
1404;SDS011;697;51.114;6.542;2022-07-29T03:11:34;7.70;;;1.40;;
1404;SDS011;697;51.114;6.542;2022-07-29T03:14:01;2.33;;;1.70;;
1404;SDS011;697;51.114;6.542;2022-07-29T03:16:30;5.33;;;1.77;;
1404;SDS011;697;51.114;6.542;2022-07-29T03:18:58;7.43;;;2.27;;
1404;SDS011;697;51.114;6.542;2022-07-29T03:21:28;9.17;;;1.93;;
1404;SDS011;697;51.114;6.542;2022-07-29T03:23:55;7.73;;;2.10;;
1404;SDS011;697;51.114;6.542;2022-07-29T03:26:22;5.70;;;1.83;;
1404;SDS011;697;51.114;6.542;2022-07-29T03:28:49;4.40;;;1.90;;
1404;SDS011;697;51.114;6.542;2022-07-29T03:31:15;9.40;;;2.33;;
1404;SDS011;697;51.114;6.542;2022-07-29T03:33:42;4.97;;;2.00;;
1404;SDS011;697;51.114;6.542;2022-07-29T03:36:09;4.10;;;2.33;;
1404;SDS011;697;51.114;6.542;2022-07-29T03:38:37;4.63;;;2.30;;
1404;SDS011;697;51.114;6.542;2022-07-29T03:41:06;6.43;;;2.50;;
1404;SDS011;697;51.114;6.542;2022-07-29T03:43:37;4.67;;;2.10;;
1404;SDS011;697;51.114;6.542;2022-07-29T03:46:07;2.70;;;2.00;;
1404;SDS011;697;51.114;6.542;2022-07-29T03:48:35;3.87;;;2.23;;
1404;SDS011;697;51.114;6.542;2022-07-29T03:51:05;3.80;;;2.67;;
1404;SDS011;697;51.114;6.542;2022-07-29T03:53:32;2.23;;;1.70;;
1404;SDS011;697;51.114;6.542;2022-07-29T03:56:01;5.40;;;1.90;;
1404;SDS011;697;51.114;6.542;2022-07-29T03:58:29;5.17;;;2.43;;
1404;SDS011;697;51.114;6.542;2022-07-29T04:00:57;3.07;;;2.30;;
1404;SDS011;697;51.114;6.542;2022-07-29T04:03:25;5.83;;;1.77;;
1404;SDS011;697;51.114;6.542;2022-07-29T04:06:01;5.80;;;1.83;;
1404;SDS011;697;51.114;6.542;2022-07-29T04:08:30;3.70;;;1.80;;
1404;SDS011;697;51.114;6.542;2022-07-29T04:10:57;8.73;;;2.10;;
1404;SDS011;697;51.114;6.542;2022-07-29T04:13:26;4.73;;;1.60;;
1404;SDS011;697;51.114;6.542;2022-07-29T04:15:53;4.33;;;2.00;;
1404;SDS011;697;51.114;6.542;2022-07-29T04:18:20;3.10;;;1.53;;
1404;SDS011;697;51.114;6.542;2022-07-29T04:20:47;3.53;;;1.97;;
1404;SDS011;697;51.114;6.542;2022-07-29T04:23:13;2.20;;;1.73;;
1404;SDS011;697;51.114;6.542;2022-07-29T04:25:41;3.30;;;1.87;;
1404;SDS011;697;51.114;6.542;2022-07-29T04:28:08;2.83;;;1.60;;
1404;SDS011;697;51.114;6.542;2022-07-29T04:30:37;1.40;;;1.30;;
1404;SDS011;697;51.114;6.542;2022-07-29T04:33:05;3.20;;;1.90;;
1404;SDS011;697;51.114;6.542;2022-07-29T04:35:33;4.50;;;2.20;;
1404;SDS011;697;51.114;6.542;2022-07-29T04:38:02;4.10;;;2.27;;
1404;SDS011;697;51.114;6.542;2022-07-29T04:40:30;7.20;;;1.90;;
1404;SDS011;697;51.114;6.542;2022-07-29T04:42:58;2.60;;;2.10;;
1404;SDS011;697;51.114;6.542;2022-07-29T04:45:25;6.00;;;2.97;;
1404;SDS011;697;51.114;6.542;2022-07-29T04:47:53;3.73;;;1.80;;
1404;SDS011;697;51.114;6.542;2022-07-29T04:50:20;4.33;;;2.03;;
1404;SDS011;697;51.114;6.542;2022-07-29T04:52:47;5.97;;;1.80;;
1404;SDS011;697;51.114;6.542;2022-07-29T04:55:14;7.43;;;2.77;;
1404;SDS011;697;51.114;6.542;2022-07-29T04:57:41;3.90;;;2.80;;
1404;SDS011;697;51.114;6.542;2022-07-29T05:00:08;3.17;;;2.00;;
1404;SDS011;697;51.114;6.542;2022-07-29T05:02:35;2.20;;;1.80;;
1404;SDS011;697;51.114;6.542;2022-07-29T05:05:04;1.90;;;1.70;;
1404;SDS011;697;51.114;6.542;2022-07-29T05:07:31;3.30;;;1.60;;
1404;SDS011;697;51.114;6.542;2022-07-29T05:09:58;4.40;;;2.10;;
1404;SDS011;697;51.114;6.542;2022-07-29T05:12:24;4.40;;;1.90;;
1404;SDS011;697;51.114;6.542;2022-07-29T05:14:52;3.20;;;1.70;;
1404;SDS011;697;51.114;6.542;2022-07-29T05:17:20;5.40;;;1.87;;
1404;SDS011;697;51.114;6.542;2022-07-29T05:19:46;3.57;;;1.87;;
1404;SDS011;697;51.114;6.542;2022-07-29T05:22:16;2.50;;;2.00;;
1404;SDS011;697;51.114;6.542;2022-07-29T05:24:43;4.13;;;2.27;;
1404;SDS011;697;51.114;6.542;2022-07-29T05:27:10;1.60;;;1.50;;
1404;SDS011;697;51.114;6.542;2022-07-29T05:29:37;3.07;;;2.10;;
1404;SDS011;697;51.114;6.542;2022-07-29T05:32:04;3.10;;;2.00;;
1404;SDS011;697;51.114;6.542;2022-07-29T05:34:31;2.70;;;1.90;;
1404;SDS011;697;51.114;6.542;2022-07-29T05:36:58;5.80;;;2.30;;
1404;SDS011;697;51.114;6.542;2022-07-29T05:39:26;2.80;;;2.40;;
1404;SDS011;697;51.114;6.542;2022-07-29T05:41:53;5.53;;;2.20;;
1404;SDS011;697;51.114;6.542;2022-07-29T05:44:19;6.13;;;2.93;;
1404;SDS011;697;51.114;6.542;2022-07-29T05:46:46;6.80;;;3.03;;
1404;SDS011;697;51.114;6.542;2022-07-29T05:49:13;3.13;;;2.30;;
1404;SDS011;697;51.114;6.542;2022-07-29T05:51:39;3.93;;;3.13;;
1404;SDS011;697;51.114;6.542;2022-07-29T05:54:06;6.80;;;2.73;;
1404;SDS011;697;51.114;6.542;2022-07-29T05:56:35;4.00;;;2.77;;
1404;SDS011;697;51.114;6.542;2022-07-29T05:59:02;4.37;;;3.27;;
1404;SDS011;697;51.114;6.542;2022-07-29T06:01:29;4.00;;;2.90;;
1404;SDS011;697;51.114;6.542;2022-07-29T06:03:56;11.73;;;3.13;;
1404;SDS011;697;51.114;6.542;2022-07-29T06:06:23;9.40;;;3.07;;
1404;SDS011;697;51.114;6.542;2022-07-29T06:08:50;6.80;;;3.30;;
1404;SDS011;697;51.114;6.542;2022-07-29T06:11:16;6.53;;;3.47;;
1404;SDS011;697;51.114;6.542;2022-07-29T06:13:44;5.57;;;3.43;;
1404;SDS011;697;51.114;6.542;2022-07-29T06:16:11;7.97;;;3.27;;
1404;SDS011;697;51.114;6.542;2022-07-29T06:18:38;4.50;;;3.40;;
1404;SDS011;697;51.114;6.542;2022-07-29T06:21:07;7.73;;;3.53;;
1404;SDS011;697;51.114;6.542;2022-07-29T06:23:34;9.27;;;3.80;;
1404;SDS011;697;51.114;6.542;2022-07-29T06:26:02;5.77;;;3.43;;
1404;SDS011;697;51.114;6.542;2022-07-29T06:28:29;4.40;;;2.77;;
1404;SDS011;697;51.114;6.542;2022-07-29T06:30:57;5.53;;;3.60;;
1404;SDS011;697;51.114;6.542;2022-07-29T06:33:23;9.80;;;3.20;;
1404;SDS011;697;51.114;6.542;2022-07-29T06:35:50;5.50;;;3.00;;
1404;SDS011;697;51.114;6.542;2022-07-29T06:38:17;5.87;;;3.43;;
1404;SDS011;697;51.114;6.542;2022-07-29T06:40:44;9.50;;;3.63;;
1404;SDS011;697;51.114;6.542;2022-07-29T06:43:27;10.27;;;3.57;;
1404;SDS011;697;51.114;6.542;2022-07-29T06:45:59;7.67;;;3.80;;
1404;SDS011;697;51.114;6.542;2022-07-29T06:48:26;8.13;;;3.97;;
1404;SDS011;697;51.114;6.542;2022-07-29T06:50:53;8.67;;;4.10;;
1404;SDS011;697;51.114;6.542;2022-07-29T06:53:20;5.67;;;3.80;;
1404;SDS011;697;51.114;6.542;2022-07-29T06:55:47;9.23;;;3.53;;
1404;SDS011;697;51.114;6.542;2022-07-29T06:58:13;7.23;;;3.87;;
1404;SDS011;697;51.114;6.542;2022-07-29T07:00:43;6.00;;;4.23;;
1404;SDS011;697;51.114;6.542;2022-07-29T07:03:11;5.70;;;3.13;;
1404;SDS011;697;51.114;6.542;2022-07-29T07:05:38;6.40;;;3.70;;
1404;SDS011;697;51.114;6.542;2022-07-29T07:08:04;8.40;;;3.50;;
1404;SDS011;697;51.114;6.542;2022-07-29T07:10:32;5.13;;;3.60;;
1404;SDS011;697;51.114;6.542;2022-07-29T07:12:59;6.47;;;3.40;;
1404;SDS011;697;51.114;6.542;2022-07-29T07:15:26;5.77;;;4.37;;
1404;SDS011;697;51.114;6.542;2022-07-29T07:17:53;7.20;;;3.17;;
1404;SDS011;697;51.114;6.542;2022-07-29T07:20:21;7.37;;;3.47;;
1404;SDS011;697;51.114;6.542;2022-07-29T07:22:48;4.80;;;3.10;;
1404;SDS011;697;51.114;6.542;2022-07-29T07:25:15;8.73;;;4.13;;
1404;SDS011;697;51.114;6.542;2022-07-29T07:27:42;7.30;;;3.57;;
1404;SDS011;697;51.114;6.542;2022-07-29T07:30:09;10.73;;;3.37;;
1404;SDS011;697;51.114;6.542;2022-07-29T07:32:36;7.20;;;3.53;;
1404;SDS011;697;51.114;6.542;2022-07-29T07:35:03;6.00;;;3.60;;
1404;SDS011;697;51.114;6.542;2022-07-29T07:37:32;4.43;;;3.10;;
1404;SDS011;697;51.114;6.542;2022-07-29T07:39:59;3.27;;;2.97;;
1404;SDS011;697;51.114;6.542;2022-07-29T07:42:26;6.57;;;3.47;;
1404;SDS011;697;51.114;6.542;2022-07-29T07:44:53;6.13;;;3.67;;
1404;SDS011;697;51.114;6.542;2022-07-29T07:47:20;7.97;;;3.37;;
1404;SDS011;697;51.114;6.542;2022-07-29T07:49:48;6.87;;;3.50;;
1404;SDS011;697;51.114;6.542;2022-07-29T07:52:16;5.63;;;3.43;;
1404;SDS011;697;51.114;6.542;2022-07-29T07:54:45;3.63;;;3.23;;
1404;SDS011;697;51.114;6.542;2022-07-29T07:57:12;8.17;;;5.27;;
1404;SDS011;697;51.114;6.542;2022-07-29T07:59:39;5.20;;;3.80;;
1404;SDS011;697;51.114;6.542;2022-07-29T08:02:06;6.67;;;3.50;;
1404;SDS011;697;51.114;6.542;2022-07-29T08:04:33;6.30;;;3.80;;
1404;SDS011;697;51.114;6.542;2022-07-29T08:07:01;5.30;;;3.73;;
1404;SDS011;697;51.114;6.542;2022-07-29T08:09:28;6.90;;;4.67;;
1404;SDS011;697;51.114;6.542;2022-07-29T08:11:57;5.93;;;4.20;;
1404;SDS011;697;51.114;6.542;2022-07-29T08:14:24;8.53;;;4.70;;
1404;SDS011;697;51.114;6.542;2022-07-29T08:16:51;6.40;;;4.30;;
1404;SDS011;697;51.114;6.542;2022-07-29T08:19:18;9.50;;;4.17;;
1404;SDS011;697;51.114;6.542;2022-07-29T08:21:45;7.00;;;4.30;;
1404;SDS011;697;51.114;6.542;2022-07-29T08:24:12;5.60;;;3.83;;
1404;SDS011;697;51.114;6.542;2022-07-29T08:26:58;8.60;;;4.27;;
1404;SDS011;697;51.114;6.542;2022-07-29T08:29:25;6.60;;;4.70;;
1404;SDS011;697;51.114;6.542;2022-07-29T08:31:51;4.97;;;3.93;;
1404;SDS011;697;51.114;6.542;2022-07-29T08:34:18;6.20;;;4.00;;
1404;SDS011;697;51.114;6.542;2022-07-29T08:36:45;13.73;;;4.53;;
1404;SDS011;697;51.114;6.542;2022-07-29T08:39:12;6.47;;;4.30;;
1404;SDS011;697;51.114;6.542;2022-07-29T08:41:38;5.47;;;3.03;;
1404;SDS011;697;51.114;6.542;2022-07-29T08:44:07;5.63;;;3.67;;
1404;SDS011;697;51.114;6.542;2022-07-29T08:46:36;4.20;;;3.27;;
1404;SDS011;697;51.114;6.542;2022-07-29T08:49:03;4.80;;;3.33;;
1404;SDS011;697;51.114;6.542;2022-07-29T08:51:30;5.50;;;3.50;;
1404;SDS011;697;51.114;6.542;2022-07-29T08:54:00;7.07;;;3.50;;
1404;SDS011;697;51.114;6.542;2022-07-29T08:56:27;7.37;;;3.63;;
1404;SDS011;697;51.114;6.542;2022-07-29T08:58:55;5.47;;;3.60;;
1404;SDS011;697;51.114;6.542;2022-07-29T09:01:25;3.90;;;3.43;;
1404;SDS011;697;51.114;6.542;2022-07-29T09:03:55;5.23;;;3.40;;
1404;SDS011;697;51.114;6.542;2022-07-29T09:06:22;10.10;;;3.47;;
1404;SDS011;697;51.114;6.542;2022-07-29T09:08:52;6.90;;;3.10;;
1404;SDS011;697;51.114;6.542;2022-07-29T09:11:20;4.77;;;3.63;;
1404;SDS011;697;51.114;6.542;2022-07-29T09:13:47;7.63;;;3.53;;
1404;SDS011;697;51.114;6.542;2022-07-29T09:16:15;5.80;;;3.40;;
1404;SDS011;697;51.114;6.542;2022-07-29T09:18:43;4.73;;;2.40;;
1404;SDS011;697;51.114;6.542;2022-07-29T09:21:11;7.57;;;3.73;;
1404;SDS011;697;51.114;6.542;2022-07-29T09:23:59;4.00;;;2.20;;
1404;SDS011;697;51.114;6.542;2022-07-29T09:26:29;4.10;;;3.10;;
1404;SDS011;697;51.114;6.542;2022-07-29T09:28:56;5.13;;;3.10;;
1404;SDS011;697;51.114;6.542;2022-07-29T09:31:27;6.07;;;3.27;;
1404;SDS011;697;51.114;6.542;2022-07-29T09:34:00;8.77;;;3.47;;
1404;SDS011;697;51.114;6.542;2022-07-29T09:36:27;8.43;;;3.60;;
1404;SDS011;697;51.114;6.542;2022-07-29T09:38:57;4.00;;;3.20;;
1404;SDS011;697;51.114;6.542;2022-07-29T09:41:26;7.30;;;3.23;;
1404;SDS011;697;51.114;6.542;2022-07-29T09:43:54;3.27;;;2.77;;
1404;SDS011;697;51.114;6.542;2022-07-29T09:46:21;5.93;;;2.00;;
1404;SDS011;697;51.114;6.542;2022-07-29T09:51:34;3.30;;;2.50;;
1404;SDS011;697;51.114;6.542;2022-07-29T09:54:01;4.87;;;2.83;;
1404;SDS011;697;51.114;6.542;2022-07-29T09:56:47;5.63;;;2.73;;
1404;SDS011;697;51.114;6.542;2022-07-29T09:59:14;8.20;;;3.80;;
1404;SDS011;697;51.114;6.542;2022-07-29T10:01:40;3.87;;;3.33;;
1404;SDS011;697;51.114;6.542;2022-07-29T10:04:09;4.77;;;3.20;;
1404;SDS011;697;51.114;6.542;2022-07-29T10:06:36;6.00;;;3.17;;
1404;SDS011;697;51.114;6.542;2022-07-29T10:09:22;6.07;;;3.10;;
1404;SDS011;697;51.114;6.542;2022-07-29T10:12:01;5.67;;;2.93;;
1404;SDS011;697;51.114;6.542;2022-07-29T10:14:29;6.83;;;3.17;;
1404;SDS011;697;51.114;6.542;2022-07-29T10:16:57;5.20;;;2.20;;
1404;SDS011;697;51.114;6.542;2022-07-29T10:19:26;6.40;;;3.57;;
1404;SDS011;697;51.114;6.542;2022-07-29T10:21:54;4.63;;;3.27;;
1404;SDS011;697;51.114;6.542;2022-07-29T10:24:22;8.20;;;3.50;;
1404;SDS011;697;51.114;6.542;2022-07-29T10:26:50;5.50;;;4.03;;
1404;SDS011;697;51.114;6.542;2022-07-29T10:29:18;6.07;;;3.67;;
1404;SDS011;697;51.114;6.542;2022-07-29T10:31:48;8.83;;;2.87;;
1404;SDS011;697;51.114;6.542;2022-07-29T10:34:30;4.53;;;3.67;;
1404;SDS011;697;51.114;6.542;2022-07-29T10:37:12;4.43;;;3.00;;
1404;SDS011;697;51.114;6.542;2022-07-29T10:39:52;4.00;;;2.80;;
1404;SDS011;697;51.114;6.542;2022-07-29T10:42:24;8.23;;;3.30;;
1404;SDS011;697;51.114;6.542;2022-07-29T10:44:54;4.27;;;2.97;;
1404;SDS011;697;51.114;6.542;2022-07-29T10:47:22;5.40;;;3.70;;
1404;SDS011;697;51.114;6.542;2022-07-29T10:50:01;4.90;;;2.50;;
1404;SDS011;697;51.114;6.542;2022-07-29T10:55:33;6.70;;;3.67;;
1404;SDS011;697;51.114;6.542;2022-07-29T10:58:13;8.83;;;3.80;;
1404;SDS011;697;51.114;6.542;2022-07-29T11:00:41;6.47;;;3.60;;
1404;SDS011;697;51.114;6.542;2022-07-29T11:03:08;7.60;;;3.80;;
1404;SDS011;697;51.114;6.542;2022-07-29T11:05:53;5.73;;;3.10;;
1404;SDS011;697;51.114;6.542;2022-07-29T11:08:22;5.83;;;3.70;;
1404;SDS011;697;51.114;6.542;2022-07-29T11:10:51;4.23;;;3.07;;
1404;SDS011;697;51.114;6.542;2022-07-29T11:13:45;5.90;;;4.00;;
1404;SDS011;697;51.114;6.542;2022-07-29T11:16:13;7.00;;;4.13;;
1404;SDS011;697;51.114;6.542;2022-07-29T11:21:51;6.37;;;4.40;;
1404;SDS011;697;51.114;6.542;2022-07-29T11:24:19;8.63;;;4.20;;
1404;SDS011;697;51.114;6.542;2022-07-29T11:29:34;9.07;;;5.83;;
1404;SDS011;697;51.114;6.542;2022-07-29T11:32:08;6.37;;;4.13;;
1404;SDS011;697;51.114;6.542;2022-07-29T11:34:36;6.63;;;5.63;;
1404;SDS011;697;51.114;6.542;2022-07-29T11:37:16;7.10;;;5.10;;
1404;SDS011;697;51.114;6.542;2022-07-29T11:40:07;10.03;;;3.40;;
1404;SDS011;697;51.114;6.542;2022-07-29T11:42:37;8.20;;;5.00;;
1404;SDS011;697;51.114;6.542;2022-07-29T11:45:09;8.03;;;5.60;;
1404;SDS011;697;51.114;6.542;2022-07-29T11:47:39;6.23;;;4.60;;
1404;SDS011;697;51.114;6.542;2022-07-29T11:50:11;5.87;;;4.27;;
1404;SDS011;697;51.114;6.542;2022-07-29T11:52:41;7.07;;;4.53;;
1404;SDS011;697;51.114;6.542;2022-07-29T11:55:12;5.13;;;3.73;;
1404;SDS011;697;51.114;6.542;2022-07-29T11:57:47;7.10;;;4.40;;
1404;SDS011;697;51.114;6.542;2022-07-29T12:00:25;6.77;;;3.57;;
1404;SDS011;697;51.114;6.542;2022-07-29T12:02:54;8.00;;;4.50;;
1404;SDS011;697;51.114;6.542;2022-07-29T12:05:29;6.10;;;4.40;;
1404;SDS011;697;51.114;6.542;2022-07-29T12:08:05;5.20;;;3.93;;
1404;SDS011;697;51.114;6.542;2022-07-29T12:10:33;7.80;;;4.70;;
1404;SDS011;697;51.114;6.542;2022-07-29T12:13:00;4.73;;;3.80;;
1404;SDS011;697;51.114;6.542;2022-07-29T12:15:26;4.33;;;3.67;;
1404;SDS011;697;51.114;6.542;2022-07-29T12:17:54;5.83;;;4.33;;
1404;SDS011;697;51.114;6.542;2022-07-29T12:20:24;8.40;;;4.27;;
1404;SDS011;697;51.114;6.542;2022-07-29T12:22:52;6.77;;;4.03;;
1404;SDS011;697;51.114;6.542;2022-07-29T12:25:21;7.68;;;3.70;;
1404;SDS011;697;51.114;6.542;2022-07-29T12:27:58;6.43;;;4.17;;
1404;SDS011;697;51.114;6.542;2022-07-29T12:30:34;5.37;;;4.07;;
1404;SDS011;697;51.114;6.542;2022-07-29T12:33:10;3.53;;;3.03;;
1404;SDS011;697;51.114;6.542;2022-07-29T12:35:38;7.35;;;4.53;;
1404;SDS011;697;51.114;6.542;2022-07-29T12:38:05;4.93;;;3.40;;
1404;SDS011;697;51.114;6.542;2022-07-29T12:40:33;6.35;;;4.28;;
1404;SDS011;697;51.114;6.542;2022-07-29T12:43:07;8.02;;;4.75;;
1404;SDS011;697;51.114;6.542;2022-07-29T12:45:37;7.63;;;3.80;;
1404;SDS011;697;51.114;6.542;2022-07-29T12:48:05;9.40;;;4.07;;
1404;SDS011;697;51.114;6.542;2022-07-29T12:50:33;5.20;;;3.13;;
1404;SDS011;697;51.114;6.542;2022-07-29T12:53:11;6.05;;;2.92;;
1404;SDS011;697;51.114;6.542;2022-07-29T12:55:40;7.97;;;3.33;;
1404;SDS011;697;51.114;6.542;2022-07-29T12:58:08;4.95;;;3.33;;
1404;SDS011;697;51.114;6.542;2022-07-29T13:00:35;5.88;;;3.10;;
1404;SDS011;697;51.114;6.542;2022-07-29T13:03:02;4.95;;;3.00;;
1404;SDS011;697;51.114;6.542;2022-07-29T13:05:38;5.05;;;3.35;;
1404;SDS011;697;51.114;6.542;2022-07-29T13:08:10;7.38;;;3.60;;
1404;SDS011;697;51.114;6.542;2022-07-29T13:10:37;6.75;;;2.97;;
1404;SDS011;697;51.114;6.542;2022-07-29T13:13:06;9.00;;;3.13;;
1404;SDS011;697;51.114;6.542;2022-07-29T13:15:35;5.70;;;3.38;;
1404;SDS011;697;51.114;6.542;2022-07-29T13:18:03;5.88;;;2.85;;
1404;SDS011;697;51.114;6.542;2022-07-29T13:20:30;4.72;;;2.80;;
1404;SDS011;697;51.114;6.542;2022-07-29T13:22:57;5.05;;;2.78;;
1404;SDS011;697;51.114;6.542;2022-07-29T13:25:25;6.20;;;2.72;;
1404;SDS011;697;51.114;6.542;2022-07-29T13:27:54;4.40;;;2.72;;
1404;SDS011;697;51.114;6.542;2022-07-29T13:30:22;3.35;;;2.38;;
1404;SDS011;697;51.114;6.542;2022-07-29T13:32:49;5.43;;;2.50;;
1404;SDS011;697;51.114;6.542;2022-07-29T13:35:17;4.53;;;2.75;;
1404;SDS011;697;51.114;6.542;2022-07-29T13:37:44;6.72;;;2.70;;
1404;SDS011;697;51.114;6.542;2022-07-29T13:40:11;2.75;;;2.03;;
1404;SDS011;697;51.114;6.542;2022-07-29T13:42:39;4.88;;;2.38;;
1404;SDS011;697;51.114;6.542;2022-07-29T13:45:09;4.75;;;1.83;;
1404;SDS011;697;51.114;6.542;2022-07-29T13:47:36;4.40;;;2.40;;
1404;SDS011;697;51.114;6.542;2022-07-29T13:50:04;3.08;;;2.05;;
1404;SDS011;697;51.114;6.542;2022-07-29T13:52:35;2.30;;;1.70;;
1404;SDS011;697;51.114;6.542;2022-07-29T13:55:02;2.85;;;1.98;;
1404;SDS011;697;51.114;6.542;2022-07-29T13:57:30;5.93;;;2.53;;
1404;SDS011;697;51.114;6.542;2022-07-29T13:59:57;7.05;;;2.50;;
1404;SDS011;697;51.114;6.542;2022-07-29T14:02:26;5.10;;;2.05;;
1404;SDS011;697;51.114;6.542;2022-07-29T14:04:53;3.85;;;2.15;;
1404;SDS011;697;51.114;6.542;2022-07-29T14:07:20;3.53;;;1.70;;
1404;SDS011;697;51.114;6.542;2022-07-29T14:09:47;3.03;;;2.00;;
1404;SDS011;697;51.114;6.542;2022-07-29T14:12:15;3.28;;;1.90;;
1404;SDS011;697;51.114;6.542;2022-07-29T14:14:41;5.07;;;2.08;;
1404;SDS011;697;51.114;6.542;2022-07-29T14:17:08;5.35;;;2.22;;
1404;SDS011;697;51.114;6.542;2022-07-29T14:19:36;4.20;;;1.70;;
1404;SDS011;697;51.114;6.542;2022-07-29T14:22:04;4.63;;;2.08;;
1404;SDS011;697;51.114;6.542;2022-07-29T14:24:31;4.00;;;2.22;;
1404;SDS011;697;51.114;6.542;2022-07-29T14:26:58;2.03;;;1.80;;
1404;SDS011;697;51.114;6.542;2022-07-29T14:29:25;1.98;;;1.48;;
1404;SDS011;697;51.114;6.542;2022-07-29T14:31:52;2.53;;;1.83;;
1404;SDS011;697;51.114;6.542;2022-07-29T14:34:19;3.20;;;1.75;;
1404;SDS011;697;51.114;6.542;2022-07-29T14:36:47;4.30;;;1.90;;
1404;SDS011;697;51.114;6.542;2022-07-29T14:39:14;6.22;;;1.90;;
1404;SDS011;697;51.114;6.542;2022-07-29T14:41:41;3.42;;;1.55;;
1404;SDS011;697;51.114;6.542;2022-07-29T14:44:08;3.42;;;2.33;;
1404;SDS011;697;51.114;6.542;2022-07-29T14:46:35;3.72;;;1.60;;
1404;SDS011;697;51.114;6.542;2022-07-29T14:49:02;4.22;;;1.90;;
1404;SDS011;697;51.114;6.542;2022-07-29T14:51:29;3.70;;;2.00;;
1404;SDS011;697;51.114;6.542;2022-07-29T14:53:57;1.85;;;1.70;;
1404;SDS011;697;51.114;6.542;2022-07-29T14:56:24;3.13;;;1.80;;
1404;SDS011;697;51.114;6.542;2022-07-29T14:58:51;4.05;;;1.90;;
1404;SDS011;697;51.114;6.542;2022-07-29T15:01:18;3.13;;;1.85;;
1404;SDS011;697;51.114;6.542;2022-07-29T15:03:45;2.60;;;1.50;;
1404;SDS011;697;51.114;6.542;2022-07-29T15:06:12;4.78;;;1.98;;
1404;SDS011;697;51.114;6.542;2022-07-29T15:08:38;2.63;;;1.67;;
1404;SDS011;697;51.114;6.542;2022-07-29T15:11:06;2.42;;;1.60;;
1404;SDS011;697;51.114;6.542;2022-07-29T15:13:33;3.90;;;1.45;;
1404;SDS011;697;51.114;6.542;2022-07-29T15:16:00;3.03;;;1.90;;
1404;SDS011;697;51.114;6.542;2022-07-29T15:18:27;2.95;;;1.65;;
1404;SDS011;697;51.114;6.542;2022-07-29T15:20:53;1.73;;;1.52;;
1404;SDS011;697;51.114;6.542;2022-07-29T15:23:20;1.88;;;1.65;;
1404;SDS011;697;51.114;6.542;2022-07-29T15:25:47;2.40;;;1.67;;
1404;SDS011;697;51.114;6.542;2022-07-29T15:28:15;1.90;;;1.70;;
1404;SDS011;697;51.114;6.542;2022-07-29T15:30:42;3.22;;;1.75;;
1404;SDS011;697;51.114;6.542;2022-07-29T15:33:09;4.30;;;2.08;;
1404;SDS011;697;51.114;6.542;2022-07-29T15:35:35;3.15;;;2.35;;
1404;SDS011;697;51.114;6.542;2022-07-29T15:38:03;3.80;;;2.38;;
1404;SDS011;697;51.114;6.542;2022-07-29T15:40:30;3.80;;;2.08;;
1404;SDS011;697;51.114;6.542;2022-07-29T15:42:56;2.72;;;1.90;;
1404;SDS011;697;51.114;6.542;2022-07-29T15:45:27;2.45;;;2.08;;
1404;SDS011;697;51.114;6.542;2022-07-29T15:47:53;2.70;;;2.13;;
1404;SDS011;697;51.114;6.542;2022-07-29T15:50:20;3.38;;;2.42;;
1404;SDS011;697;51.114;6.542;2022-07-29T15:52:47;2.35;;;2.13;;